createdAt,value
2018-12-24T00:00:19.656Z,995.27
2018-12-24T00:01:19.643Z,995.27
2018-12-24T00:02:19.631Z,995.26
2018-12-24T00:03:19.657Z,995.27
2018-12-24T00:04:19.611Z,995.22
2018-12-24T00:05:19.601Z,995.23
2018-12-24T00:06:19.596Z,995.17
2018-12-24T00:07:19.581Z,995.16
2018-12-24T00:08:19.600Z,995.16
2018-12-24T00:09:19.579Z,995.13
2018-12-24T00:10:19.571Z,995.14
2018-12-24T00:11:19.534Z,995.06
2018-12-24T00:12:19.534Z,995.07
2018-12-24T00:13:19.518Z,995.04
2018-12-24T00:14:19.540Z,994.99
2018-12-24T00:15:19.488Z,995.05
2018-12-24T00:16:19.482Z,995.05
2018-12-24T00:17:19.467Z,995.13
2018-12-24T00:18:19.460Z,995.19
2018-12-24T00:19:19.505Z,995.21
2018-12-24T00:20:19.436Z,995.21
2018-12-24T00:21:19.423Z,995.20
2018-12-24T00:22:19.431Z,995.25
2018-12-24T00:23:19.402Z,995.23
2018-12-24T00:24:19.427Z,995.30
2018-12-24T00:25:19.379Z,995.27
2018-12-24T00:26:19.393Z,995.30
2018-12-24T00:27:19.360Z,995.31
2018-12-24T00:28:19.350Z,995.29
2018-12-24T00:29:19.360Z,995.29
2018-12-24T00:30:19.326Z,995.33
2018-12-24T00:31:19.315Z,995.28
2018-12-24T00:32:19.338Z,995.31
2018-12-24T00:33:19.291Z,995.33
2018-12-24T00:34:19.283Z,995.36
2018-12-24T00:35:19.292Z,995.39
2018-12-24T00:36:19.260Z,995.44
2018-12-24T00:37:19.247Z,995.47
2018-12-24T00:38:19.239Z,995.49
2018-12-24T00:39:19.229Z,995.53
2018-12-24T00:40:19.237Z,995.55
2018-12-24T00:41:19.228Z,995.63
2018-12-24T00:42:19.196Z,995.62
2018-12-24T00:43:19.185Z,995.61
2018-12-24T00:44:19.176Z,995.69
2018-12-24T00:45:19.182Z,995.63
2018-12-24T00:46:19.148Z,995.62
2018-12-24T00:47:19.143Z,995.63
2018-12-24T00:48:19.125Z,995.64
2018-12-24T00:49:19.153Z,995.74
2018-12-24T00:50:19.107Z,995.72
2018-12-24T00:51:19.091Z,995.73
2018-12-24T00:52:19.086Z,995.75
2018-12-24T00:53:19.089Z,995.75
2018-12-24T00:54:19.087Z,995.78
2018-12-24T00:55:19.054Z,995.77
2018-12-24T00:56:20.095Z,995.78
2018-12-24T00:57:19.030Z,995.79
2018-12-24T00:58:19.018Z,995.82
2018-12-24T00:59:19.014Z,995.82
2018-12-24T01:00:18.991Z,995.85
2018-12-24T01:01:19.015Z,995.88
2018-12-24T01:02:18.984Z,995.92
2018-12-24T01:03:18.982Z,995.99
2018-12-24T01:04:18.948Z,995.95
2018-12-24T01:05:18.961Z,996.03
2018-12-24T01:06:18.926Z,996.04
2018-12-24T01:07:18.941Z,996.06
2018-12-24T01:08:18.968Z,996.06
2018-12-24T01:09:18.907Z,996.13
2018-12-24T01:10:18.890Z,996.17
2018-12-24T01:11:18.915Z,996.18
2018-12-24T01:12:24.591Z,996.21
2018-12-24T01:13:19.854Z,996.29
2018-12-24T01:14:18.848Z,996.30
2018-12-24T01:15:18.826Z,996.31
2018-12-24T01:16:18.845Z,996.36
2018-12-24T01:17:18.813Z,996.37
2018-12-24T01:18:18.796Z,996.43
2018-12-24T01:19:18.782Z,996.43
2018-12-24T01:20:18.773Z,996.42
2018-12-24T01:21:18.800Z,996.43
2018-12-24T01:22:18.766Z,996.42
2018-12-24T01:23:18.739Z,996.44
2018-12-24T01:24:18.733Z,996.44
2018-12-24T01:25:18.715Z,996.45
2018-12-24T01:26:18.728Z,996.47
2018-12-24T01:27:18.700Z,996.43
2018-12-24T01:28:18.722Z,996.46
2018-12-24T01:29:18.673Z,996.53
2018-12-24T01:30:18.674Z,996.54
2018-12-24T01:31:18.678Z,996.59
2018-12-24T01:32:18.637Z,996.62
2018-12-24T01:33:18.638Z,996.65
2018-12-24T01:34:18.620Z,996.62
2018-12-24T01:35:18.665Z,996.66
2018-12-24T01:36:18.604Z,996.63
2018-12-24T01:37:18.583Z,996.70
2018-12-24T01:38:18.584Z,996.74
2018-12-24T01:39:18.574Z,996.79
2018-12-24T01:40:18.596Z,996.83
2018-12-24T01:41:18.541Z,996.86
2018-12-24T01:42:18.541Z,996.85
2018-12-24T01:43:18.541Z,996.88
2018-12-24T01:44:18.511Z,996.91
2018-12-24T01:45:18.497Z,996.91
2018-12-24T01:46:18.491Z,996.99
2018-12-24T01:47:18.499Z,997.02
2018-12-24T01:48:18.476Z,997.03
2018-12-24T01:49:18.460Z,997.04
2018-12-24T01:50:18.443Z,997.09
2018-12-24T01:51:18.875Z,997.12
2018-12-24T01:52:18.418Z,997.19
2018-12-24T01:53:18.406Z,997.18
2018-12-24T01:54:18.426Z,997.23
2018-12-24T01:55:18.387Z,997.17
2018-12-24T01:56:18.372Z,997.18
2018-12-24T01:57:18.360Z,997.19
2018-12-24T01:58:18.372Z,997.15
2018-12-24T01:59:18.344Z,997.15
2018-12-24T02:00:18.355Z,997.11
2018-12-24T02:01:18.326Z,997.12
2018-12-24T02:02:18.322Z,997.13
2018-12-24T02:03:18.299Z,997.19
2018-12-24T02:04:18.288Z,997.19
2018-12-24T02:05:18.323Z,997.26
2018-12-24T02:06:18.262Z,997.30
2018-12-24T02:07:18.254Z,997.27
2018-12-24T02:08:18.246Z,997.29
2018-12-24T02:09:18.240Z,997.30
2018-12-24T02:10:18.242Z,997.34
2018-12-24T02:11:18.213Z,997.34
2018-12-24T02:12:18.199Z,997.31
2018-12-24T02:13:18.218Z,997.35
2018-12-24T02:14:18.176Z,997.38
2018-12-24T02:15:18.179Z,997.39
2018-12-24T02:16:18.153Z,997.39
2018-12-24T02:17:18.140Z,997.43
2018-12-24T02:18:18.146Z,997.40
2018-12-24T02:19:18.234Z,997.41
2018-12-24T02:20:18.114Z,997.41
2018-12-24T02:21:18.098Z,997.41
2018-12-24T02:22:18.097Z,997.43
2018-12-24T02:23:18.076Z,997.43
2018-12-24T02:24:18.085Z,997.42
2018-12-24T02:25:18.051Z,997.47
2018-12-24T02:26:18.044Z,997.46
2018-12-24T02:27:18.031Z,997.50
2018-12-24T02:28:18.022Z,997.53
2018-12-24T02:29:18.033Z,997.51
2018-12-24T02:30:18.000Z,997.51
2018-12-24T02:31:18.009Z,997.51
2018-12-24T02:32:17.989Z,997.49
2018-12-24T02:33:18.016Z,997.56
2018-12-24T02:34:18.001Z,997.60
2018-12-24T02:35:17.944Z,997.53
2018-12-24T02:36:17.934Z,997.55
2018-12-24T02:37:17.921Z,997.55
2018-12-24T02:38:17.921Z,997.63
2018-12-24T02:39:17.937Z,997.61
2018-12-24T02:40:17.887Z,997.61
2018-12-24T02:41:17.873Z,997.63
2018-12-24T02:42:17.866Z,997.63
2018-12-24T02:43:17.855Z,997.64
2018-12-24T02:44:17.864Z,997.66
2018-12-24T02:45:17.838Z,997.61
2018-12-24T02:46:17.822Z,997.66
2018-12-24T02:47:17.814Z,997.68
2018-12-24T02:48:17.801Z,997.67
2018-12-24T02:49:17.831Z,997.64
2018-12-24T02:50:17.787Z,997.68
2018-12-24T02:51:17.776Z,997.68
2018-12-24T02:52:17.760Z,997.72
2018-12-24T02:53:17.746Z,997.71
2018-12-24T02:54:17.860Z,997.73
2018-12-24T02:55:17.731Z,997.73
2018-12-24T02:56:17.709Z,997.75
2018-12-24T02:57:17.704Z,997.76
2018-12-24T02:58:17.724Z,997.78
2018-12-24T02:59:17.708Z,997.77
2018-12-24T03:00:17.667Z,997.76
2018-12-24T03:01:17.698Z,997.79
2018-12-24T03:02:17.645Z,997.86
2018-12-24T03:03:17.653Z,997.88
2018-12-24T03:04:17.692Z,997.86
2018-12-24T03:05:17.613Z,997.87
2018-12-24T03:06:17.649Z,997.86
2018-12-24T03:07:17.612Z,997.90
2018-12-24T03:08:17.615Z,997.87
2018-12-24T03:09:17.569Z,997.90
2018-12-24T03:10:17.558Z,997.88
2018-12-24T03:11:17.569Z,997.94
2018-12-24T03:12:17.554Z,997.93
2018-12-24T03:13:17.541Z,997.98
2018-12-24T03:14:17.511Z,997.96
2018-12-24T03:15:17.550Z,998.05
2018-12-24T03:16:17.488Z,998.01
2018-12-24T03:17:17.496Z,998.02
2018-12-24T03:18:17.475Z,998.08
2018-12-24T03:19:17.471Z,998.05
2018-12-24T03:20:17.483Z,998.07
2018-12-24T03:21:17.441Z,998.09
2018-12-24T03:22:17.423Z,998.09
2018-12-24T03:23:17.435Z,998.13
2018-12-24T03:24:17.403Z,998.17
2018-12-24T03:25:17.390Z,998.12
2018-12-24T03:26:17.384Z,998.13
2018-12-24T03:27:17.374Z,998.13
2018-12-24T03:28:17.392Z,998.16
2018-12-24T03:29:17.358Z,998.13
2018-12-24T03:30:17.355Z,998.18
2018-12-24T03:31:17.446Z,998.15
2018-12-24T03:32:17.318Z,998.22
2018-12-24T03:33:17.363Z,998.23
2018-12-24T03:34:17.290Z,998.21
2018-12-24T03:35:17.281Z,998.29
2018-12-24T03:36:17.315Z,998.28
2018-12-24T03:37:17.260Z,998.34
2018-12-24T03:38:17.252Z,998.39
2018-12-24T03:39:17.236Z,998.40
2018-12-24T03:40:17.226Z,998.41
2018-12-24T03:41:17.230Z,998.44
2018-12-24T03:42:17.212Z,998.44
2018-12-24T03:43:17.227Z,998.48
2018-12-24T03:44:17.183Z,998.49
2018-12-24T03:45:17.169Z,998.48
2018-12-24T03:46:17.159Z,998.53
2018-12-24T03:47:17.151Z,998.53
2018-12-24T03:48:17.161Z,998.57
2018-12-24T03:49:17.157Z,998.61
2018-12-24T03:50:17.120Z,998.64
2018-12-24T03:51:17.112Z,998.68
2018-12-24T03:52:17.117Z,998.73
2018-12-24T03:53:17.088Z,998.79
2018-12-24T03:54:17.070Z,998.73
2018-12-24T03:55:17.062Z,998.79
2018-12-24T03:56:17.054Z,998.79
2018-12-24T03:57:17.073Z,998.85
2018-12-24T03:58:17.052Z,998.89
2018-12-24T03:59:17.042Z,998.93
2018-12-24T04:00:17.009Z,998.93
2018-12-24T04:01:16.992Z,998.93
2018-12-24T04:02:17.010Z,998.98
2018-12-24T04:03:16.973Z,999.02
2018-12-24T04:04:17.071Z,999.00
2018-12-24T04:05:16.960Z,998.98
2018-12-24T04:06:16.973Z,999.00
2018-12-24T04:07:16.926Z,999.00
2018-12-24T04:08:16.916Z,999.03
2018-12-24T04:09:16.906Z,999.07
2018-12-24T04:10:16.937Z,999.13
2018-12-24T04:11:16.890Z,999.16
2018-12-24T04:12:16.872Z,999.19
2018-12-24T04:13:22.517Z,999.24
2018-12-24T04:14:17.855Z,999.23
2018-12-24T04:15:16.861Z,999.28
2018-12-24T04:16:16.861Z,999.32
2018-12-24T04:17:16.824Z,999.32
2018-12-24T04:18:16.807Z,999.32
2018-12-24T04:19:16.827Z,999.32
2018-12-24T04:20:16.785Z,999.31
2018-12-24T04:21:16.859Z,999.40
2018-12-24T04:22:16.790Z,999.35
2018-12-24T04:23:16.788Z,999.38
2018-12-24T04:24:16.747Z,999.45
2018-12-24T04:25:16.752Z,999.43
2018-12-24T04:26:16.754Z,999.47
2018-12-24T04:27:16.734Z,999.48
2018-12-24T04:28:16.715Z,999.51
2018-12-24T04:29:16.813Z,999.51
2018-12-24T04:30:16.675Z,999.51
2018-12-24T04:31:16.684Z,999.57
2018-12-24T04:32:16.652Z,999.58
2018-12-24T04:33:16.678Z,999.56
2018-12-24T04:34:16.647Z,999.58
2018-12-24T04:35:16.644Z,999.63
2018-12-24T04:36:16.607Z,999.62
2018-12-24T04:37:16.598Z,999.63
2018-12-24T04:38:16.636Z,999.68
2018-12-24T04:39:16.574Z,999.74
2018-12-24T04:40:16.574Z,999.81
2018-12-24T04:41:16.555Z,999.75
2018-12-24T04:42:16.613Z,999.77
2018-12-24T04:43:16.531Z,999.87
2018-12-24T04:44:16.520Z,999.89
2018-12-24T04:45:16.519Z,999.87
2018-12-24T04:46:16.515Z,999.93
2018-12-24T04:47:16.523Z,999.94
2018-12-24T04:48:16.488Z,999.90
2018-12-24T04:49:16.502Z,999.90
2018-12-24T04:50:16.530Z,999.98
2018-12-24T04:51:16.516Z,999.94
2018-12-24T04:52:16.448Z,999.99
2018-12-24T04:53:16.456Z,999.98
2018-12-24T04:54:16.433Z,1000.01
2018-12-24T04:55:16.406Z,1000.06
2018-12-24T04:56:16.410Z,1000.15
2018-12-24T04:57:16.418Z,1000.14
2018-12-24T04:58:16.415Z,1000.20
2018-12-24T04:59:16.361Z,1000.23
2018-12-24T05:00:16.343Z,1000.34
2018-12-24T05:01:16.379Z,1000.37
2018-12-24T05:02:16.383Z,1000.38
2018-12-24T05:03:16.370Z,1000.41
2018-12-24T05:04:16.305Z,1000.49
2018-12-24T05:05:16.361Z,1000.52
2018-12-24T05:06:16.287Z,1000.51
2018-12-24T05:07:16.351Z,1000.52
2018-12-24T05:08:16.285Z,1000.55
2018-12-24T05:09:16.292Z,1000.64
2018-12-24T05:10:16.255Z,1000.62
2018-12-24T05:11:16.239Z,1000.71
2018-12-24T05:12:16.275Z,1000.72
2018-12-24T05:13:16.226Z,1000.71
2018-12-24T05:14:16.192Z,1000.73
2018-12-24T05:15:16.182Z,1000.78
2018-12-24T05:16:16.222Z,1000.76
2018-12-24T05:17:16.184Z,1000.84
2018-12-24T05:18:16.160Z,1000.83
2018-12-24T05:19:16.241Z,1000.91
2018-12-24T05:20:16.130Z,1000.97
2018-12-24T05:21:16.117Z,1000.98
2018-12-24T05:22:16.112Z,1001.05
2018-12-24T05:23:16.120Z,1001.06
2018-12-24T05:24:16.195Z,1001.09
2018-12-24T05:25:16.170Z,1001.11
2018-12-24T05:26:16.067Z,1001.11
2018-12-24T05:27:16.058Z,1001.16
2018-12-24T05:28:16.067Z,1001.22
2018-12-24T05:29:16.084Z,1001.26
2018-12-24T05:30:16.012Z,1001.29
2018-12-24T05:31:16.028Z,1001.31
2018-12-24T05:32:16.019Z,1001.42
2018-12-24T05:33:15.980Z,1001.45
2018-12-24T05:34:15.972Z,1001.48
2018-12-24T05:35:15.958Z,1001.52
2018-12-24T05:36:15.955Z,1001.58
2018-12-24T05:37:15.973Z,1001.57
2018-12-24T05:38:15.935Z,1001.64
2018-12-24T05:39:15.940Z,1001.70
2018-12-24T05:40:15.938Z,1001.73
2018-12-24T05:41:15.916Z,1001.77
2018-12-24T05:42:15.881Z,1001.86
2018-12-24T05:43:15.903Z,1001.87
2018-12-24T05:44:15.870Z,1001.87
2018-12-24T05:45:15.900Z,1001.90
2018-12-24T05:46:15.853Z,1001.89
2018-12-24T05:47:16.344Z,1001.99
2018-12-24T05:48:15.815Z,1001.98
2018-12-24T05:49:15.805Z,1002.09
2018-12-24T05:50:15.811Z,1002.12
2018-12-24T05:51:15.786Z,1002.15
2018-12-24T05:52:15.798Z,1002.13
2018-12-24T05:53:15.758Z,1002.16
2018-12-24T05:54:15.753Z,1002.20
2018-12-24T05:55:15.748Z,1002.20
2018-12-24T05:56:15.735Z,1002.24
2018-12-24T05:57:15.741Z,1002.27
2018-12-24T05:58:15.707Z,1002.26
2018-12-24T05:59:15.693Z,1002.30
2018-12-24T06:00:15.693Z,1002.33
2018-12-24T06:01:15.685Z,1002.37
2018-12-24T06:02:15.686Z,1002.40
2018-12-24T06:03:15.651Z,1002.42
2018-12-24T06:04:15.688Z,1002.47
2018-12-24T06:05:15.639Z,1002.51
2018-12-24T06:06:15.618Z,1002.52
2018-12-24T06:07:15.605Z,1002.56
2018-12-24T06:08:15.614Z,1002.56
2018-12-24T06:09:15.606Z,1002.64
2018-12-24T06:10:15.573Z,1002.67
2018-12-24T06:11:15.561Z,1002.69
2018-12-24T06:12:15.581Z,1002.72
2018-12-24T06:13:15.573Z,1002.76
2018-12-24T06:14:15.528Z,1002.80
2018-12-24T06:15:15.520Z,1002.84
2018-12-24T06:16:15.533Z,1002.92
2018-12-24T06:17:15.534Z,1002.91
2018-12-24T06:18:15.509Z,1002.97
2018-12-24T06:19:15.478Z,1002.99
2018-12-24T06:20:15.486Z,1002.97
2018-12-24T06:21:15.504Z,1003.04
2018-12-24T06:22:15.439Z,1003.06
2018-12-24T06:23:15.428Z,1003.12
2018-12-24T06:24:15.421Z,1003.09
2018-12-24T06:25:15.423Z,1003.11
2018-12-24T06:26:15.430Z,1003.17
2018-12-24T06:27:15.390Z,1003.11
2018-12-24T06:28:15.376Z,1003.13
2018-12-24T06:29:15.363Z,1003.18
2018-12-24T06:30:15.359Z,1003.20
2018-12-24T06:31:15.368Z,1003.21
2018-12-24T06:32:15.366Z,1003.22
2018-12-24T06:33:15.378Z,1003.28
2018-12-24T06:34:15.349Z,1003.27
2018-12-24T06:35:15.300Z,1003.30
2018-12-24T06:36:15.302Z,1003.26
2018-12-24T06:37:15.307Z,1003.26
2018-12-24T06:38:15.264Z,1003.27
2018-12-24T06:39:15.290Z,1003.32
2018-12-24T06:40:15.255Z,1003.31
2018-12-24T06:41:15.230Z,1003.29
2018-12-24T06:42:15.235Z,1003.36
2018-12-24T06:43:15.229Z,1003.43
2018-12-24T06:44:15.212Z,1003.45
2018-12-24T06:45:15.194Z,1003.50
2018-12-24T06:46:15.174Z,1003.49
2018-12-24T06:47:15.169Z,1003.49
2018-12-24T06:48:15.183Z,1003.51
2018-12-24T06:49:15.166Z,1003.56
2018-12-24T06:50:15.835Z,1003.61
2018-12-24T06:51:15.125Z,1003.60
2018-12-24T06:52:15.137Z,1003.64
2018-12-24T06:53:15.105Z,1003.66
2018-12-24T06:54:15.097Z,1003.65
2018-12-24T06:55:15.125Z,1003.65
2018-12-24T06:56:15.114Z,1003.69
2018-12-24T06:57:15.054Z,1003.68
2018-12-24T06:58:15.100Z,1003.71
2018-12-24T06:59:15.037Z,1003.79
2018-12-24T07:00:15.043Z,1003.82
2018-12-24T07:01:15.153Z,1003.82
2018-12-24T07:02:15.019Z,1003.85
2018-12-24T07:03:15.037Z,1003.83
2018-12-24T07:04:14.978Z,1003.87
2018-12-24T07:05:14.969Z,1003.87
2018-12-24T07:06:14.993Z,1003.97
2018-12-24T07:07:15.018Z,1003.97
2018-12-24T07:08:15.046Z,1003.96
2018-12-24T07:09:14.935Z,1004.04
2018-12-24T07:10:14.910Z,1004.13
2018-12-24T07:11:14.923Z,1004.09
2018-12-24T07:12:14.918Z,1004.11
2018-12-24T07:13:14.920Z,1004.19
2018-12-24T07:14:15.494Z,1004.18
2018-12-24T07:15:14.866Z,1004.18
2018-12-24T07:16:14.884Z,1004.23
2018-12-24T07:17:14.860Z,1004.24
2018-12-24T07:18:14.829Z,1004.29
2018-12-24T07:19:14.814Z,1004.33
2018-12-24T07:20:14.824Z,1004.39
2018-12-24T07:21:14.813Z,1004.44
2018-12-24T07:22:14.779Z,1004.43
2018-12-24T07:23:14.793Z,1004.44
2018-12-24T07:24:14.806Z,1004.43
2018-12-24T07:25:14.745Z,1004.46
2018-12-24T07:26:14.776Z,1004.48
2018-12-24T07:27:14.724Z,1004.53
2018-12-24T07:28:14.763Z,1004.53
2018-12-24T07:29:14.733Z,1004.57
2018-12-24T07:30:14.735Z,1004.63
2018-12-24T07:31:14.704Z,1004.64
2018-12-24T07:32:14.669Z,1004.62
2018-12-24T07:33:14.690Z,1004.70
2018-12-24T07:34:14.681Z,1004.76
2018-12-24T07:35:14.638Z,1004.75
2018-12-24T07:36:14.625Z,1004.78
2018-12-24T07:37:14.620Z,1004.80
2018-12-24T07:38:14.657Z,1004.85
2018-12-24T07:39:14.590Z,1004.85
2018-12-24T07:40:14.622Z,1004.85
2018-12-24T07:41:14.612Z,1004.92
2018-12-24T07:42:14.577Z,1004.92
2018-12-24T07:43:14.567Z,1004.94
2018-12-24T07:44:14.576Z,1005.00
2018-12-24T07:45:14.554Z,1005.00
2018-12-24T07:46:14.526Z,1005.07
2018-12-24T07:47:14.534Z,1005.11
2018-12-24T07:48:14.497Z,1005.09
2018-12-24T07:49:14.483Z,1005.14
2018-12-24T07:50:14.471Z,1005.19
2018-12-24T07:51:14.482Z,1005.20
2018-12-24T07:52:14.472Z,1005.20
2018-12-24T07:53:14.444Z,1005.26
2018-12-24T07:54:14.481Z,1005.23
2018-12-24T07:55:14.415Z,1005.27
2018-12-24T07:56:14.425Z,1005.30
2018-12-24T07:57:14.403Z,1005.32
2018-12-24T07:58:14.406Z,1005.35
2018-12-24T07:59:14.401Z,1005.39
2018-12-24T08:00:14.362Z,1005.44
2018-12-24T08:01:14.356Z,1005.45
2018-12-24T08:02:14.361Z,1005.50
2018-12-24T08:03:14.388Z,1005.45
2018-12-24T08:04:14.331Z,1005.53
2018-12-24T08:05:14.307Z,1005.56
2018-12-24T08:06:14.299Z,1005.60
2018-12-24T08:07:14.309Z,1005.59
2018-12-24T08:08:14.298Z,1005.62
2018-12-24T08:09:14.311Z,1005.65
2018-12-24T08:10:14.250Z,1005.66
2018-12-24T08:11:14.237Z,1005.66
2018-12-24T08:12:14.244Z,1005.69
2018-12-24T08:13:14.219Z,1005.70
2018-12-24T08:14:14.205Z,1005.72
2018-12-24T08:15:14.205Z,1005.75
2018-12-24T08:16:14.213Z,1005.82
2018-12-24T08:17:14.216Z,1005.82
2018-12-24T08:18:14.164Z,1005.85
2018-12-24T08:19:14.160Z,1005.86
2018-12-24T08:20:14.138Z,1005.88
2018-12-24T08:21:14.151Z,1005.80
2018-12-24T08:22:14.117Z,1005.83
2018-12-24T08:23:14.105Z,1005.87
2018-12-24T08:24:14.100Z,1005.88
2018-12-24T08:25:14.103Z,1005.92
2018-12-24T08:26:14.102Z,1005.93
2018-12-24T08:27:14.089Z,1005.95
2018-12-24T08:28:14.053Z,1006.00
2018-12-24T08:29:14.062Z,1005.97
2018-12-24T08:30:14.054Z,1005.96
2018-12-24T08:31:14.017Z,1006.06
2018-12-24T08:32:14.015Z,1006.10
2018-12-24T08:33:14.006Z,1006.11
2018-12-24T08:34:13.997Z,1006.14
2018-12-24T08:35:13.999Z,1006.20
2018-12-24T08:36:13.980Z,1006.24
2018-12-24T08:37:13.955Z,1006.27
2018-12-24T08:38:15.731Z,1006.36
2018-12-24T08:39:13.958Z,1006.29
2018-12-24T08:40:13.957Z,1006.38
2018-12-24T08:41:13.908Z,1006.42
2018-12-24T08:42:13.904Z,1006.40
2018-12-24T08:43:13.886Z,1006.46
2018-12-24T08:44:13.883Z,1006.49
2018-12-24T08:45:13.901Z,1006.51
2018-12-24T08:46:13.852Z,1006.54
2018-12-24T08:47:13.841Z,1006.54
2018-12-24T08:48:13.829Z,1006.58
2018-12-24T08:49:13.819Z,1006.65
2018-12-24T08:50:13.838Z,1006.68
2018-12-24T08:51:13.822Z,1006.74
2018-12-24T08:52:13.802Z,1006.77
2018-12-24T08:53:13.789Z,1006.77
2018-12-24T08:54:13.777Z,1006.77
2018-12-24T08:55:13.760Z,1006.85
2018-12-24T08:56:14.657Z,1006.90
2018-12-24T08:57:13.923Z,1006.84
2018-12-24T08:58:13.730Z,1006.90
2018-12-24T08:59:13.710Z,1006.91
2018-12-24T09:00:13.703Z,1006.96
2018-12-24T09:01:13.688Z,1007.01
2018-12-24T09:02:13.703Z,1007.03
2018-12-24T09:03:13.741Z,1007.04
2018-12-24T09:04:13.685Z,1007.02
2018-12-24T09:05:13.647Z,1007.04
2018-12-24T09:06:13.654Z,1007.09
2018-12-24T09:07:13.771Z,1007.12
2018-12-24T09:08:13.629Z,1007.10
2018-12-24T09:09:13.623Z,1007.14
2018-12-24T09:10:13.590Z,1007.10
2018-12-24T09:11:13.681Z,1007.15
2018-12-24T09:12:13.569Z,1007.16
2018-12-24T09:13:13.693Z,1007.16
2018-12-24T09:14:13.562Z,1007.15
2018-12-24T09:15:13.536Z,1007.20
2018-12-24T09:16:13.521Z,1007.25
2018-12-24T09:17:13.622Z,1007.29
2018-12-24T09:18:13.504Z,1007.29
2018-12-24T09:19:13.504Z,1007.38
2018-12-24T09:20:13.511Z,1007.36
2018-12-24T09:21:13.468Z,1007.41
2018-12-24T09:22:13.551Z,1007.42
2018-12-24T09:23:13.447Z,1007.49
2018-12-24T09:24:13.463Z,1007.55
2018-12-24T09:25:13.451Z,1007.53
2018-12-24T09:26:13.410Z,1007.57
2018-12-24T09:27:13.494Z,1007.60
2018-12-24T09:28:13.390Z,1007.67
2018-12-24T09:29:13.406Z,1007.65
2018-12-24T09:30:13.413Z,1007.63
2018-12-24T09:31:13.390Z,1007.61
2018-12-24T09:32:13.437Z,1007.65
2018-12-24T09:33:13.462Z,1007.60
2018-12-24T09:34:13.332Z,1007.62
2018-12-24T09:35:13.400Z,1007.63
2018-12-24T09:36:13.357Z,1007.61
2018-12-24T09:37:13.309Z,1007.61
2018-12-24T09:38:13.294Z,1007.63
2018-12-24T09:39:13.274Z,1007.67
2018-12-24T09:40:13.273Z,1007.59
2018-12-24T09:41:13.254Z,1007.63
2018-12-24T09:42:13.320Z,1007.62
2018-12-24T09:43:13.239Z,1007.63
2018-12-24T09:44:13.251Z,1007.60
2018-12-24T09:45:13.225Z,1007.65
2018-12-24T09:46:13.217Z,1007.68
2018-12-24T09:47:13.194Z,1007.74
2018-12-24T09:48:13.176Z,1007.72
2018-12-24T09:49:13.158Z,1007.83
2018-12-24T09:50:13.343Z,1007.78
2018-12-24T09:51:13.135Z,1007.76
2018-12-24T09:52:13.131Z,1007.82
2018-12-24T09:53:13.112Z,1007.82
2018-12-24T09:54:13.221Z,1007.91
2018-12-24T09:55:13.124Z,1007.89
2018-12-24T09:56:13.136Z,1007.88
2018-12-24T09:57:13.069Z,1007.90
2018-12-24T09:58:13.058Z,1007.92
2018-12-24T09:59:13.057Z,1007.90
2018-12-24T10:00:13.059Z,1007.94
2018-12-24T10:01:13.060Z,1007.94
2018-12-24T10:02:13.041Z,1007.94
2018-12-24T10:03:13.018Z,1007.95
2018-12-24T10:04:13.120Z,1007.94
2018-12-24T10:05:13.009Z,1007.98
2018-12-24T10:06:13.079Z,1008.04
2018-12-24T10:07:12.959Z,1008.05
2018-12-24T10:08:13.001Z,1008.08
2018-12-24T10:09:12.942Z,1008.09
2018-12-24T10:10:13.053Z,1008.13
2018-12-24T10:11:13.027Z,1008.20
2018-12-24T10:12:12.947Z,1008.19
2018-12-24T10:13:12.898Z,1008.16
2018-12-24T10:14:13.017Z,1008.22
2018-12-24T10:15:12.879Z,1008.25
2018-12-24T10:16:12.893Z,1008.28
2018-12-24T10:17:12.857Z,1008.36
2018-12-24T10:18:12.895Z,1008.31
2018-12-24T10:19:12.842Z,1008.32
2018-12-24T10:20:12.875Z,1008.37
2018-12-24T10:21:12.823Z,1008.36
2018-12-24T10:22:12.818Z,1008.44
2018-12-24T10:23:12.794Z,1008.44
2018-12-24T10:24:12.790Z,1008.43
2018-12-24T10:25:12.817Z,1008.47
2018-12-24T10:26:12.809Z,1008.52
2018-12-24T10:27:12.749Z,1008.53
2018-12-24T10:28:12.756Z,1008.57
2018-12-24T10:29:12.730Z,1008.57
2018-12-24T10:30:12.781Z,1008.67
2018-12-24T10:31:12.709Z,1008.70
2018-12-24T10:32:12.700Z,1008.69
2018-12-24T10:33:12.707Z,1008.70
2018-12-24T10:34:12.674Z,1008.77
2018-12-24T10:35:12.752Z,1008.79
2018-12-24T10:36:12.651Z,1008.83
2018-12-24T10:37:12.633Z,1008.85
2018-12-24T10:38:12.700Z,1008.85
2018-12-24T10:39:12.668Z,1008.86
2018-12-24T10:40:12.612Z,1008.89
2018-12-24T10:41:12.602Z,1008.90
2018-12-24T10:42:12.572Z,1008.92
2018-12-24T10:43:12.596Z,1008.92
2018-12-24T10:44:12.553Z,1008.94
2018-12-24T10:45:16.503Z,1008.97
2018-12-24T10:46:12.600Z,1008.98
2018-12-24T10:47:12.549Z,1008.97
2018-12-24T10:48:12.512Z,1008.92
2018-12-24T10:49:12.641Z,1008.96
2018-12-24T10:50:12.484Z,1008.99
2018-12-24T10:51:12.481Z,1008.98
2018-12-24T10:52:12.496Z,1009.01
2018-12-24T10:53:12.451Z,1009.00
2018-12-24T10:54:12.458Z,1008.98
2018-12-24T10:55:12.432Z,1009.06
2018-12-24T10:56:12.450Z,1009.08
2018-12-24T10:57:12.438Z,1009.12
2018-12-24T10:58:12.404Z,1009.15
2018-12-24T10:59:12.428Z,1009.18
2018-12-24T11:00:12.375Z,1009.17
2018-12-24T11:01:12.389Z,1009.11
2018-12-24T11:02:12.410Z,1009.13
2018-12-24T11:03:12.372Z,1009.18
2018-12-24T11:04:12.346Z,1009.20
2018-12-24T11:05:12.347Z,1009.20
2018-12-24T11:06:12.308Z,1009.19
2018-12-24T11:07:12.301Z,1009.22
2018-12-24T11:08:12.301Z,1009.21
2018-12-24T11:09:12.282Z,1009.17
2018-12-24T11:10:12.290Z,1009.17
2018-12-24T11:11:12.262Z,1009.15
2018-12-24T11:12:12.408Z,1009.16
2018-12-24T11:13:12.231Z,1009.18
2018-12-24T11:14:12.222Z,1009.15
2018-12-24T11:15:12.244Z,1009.16
2018-12-24T11:16:12.236Z,1009.15
2018-12-24T11:17:12.186Z,1009.14
2018-12-24T11:18:12.327Z,1009.12
2018-12-24T11:19:12.166Z,1009.11
2018-12-24T11:20:12.158Z,1009.16
2018-12-24T11:21:12.171Z,1009.24
2018-12-24T11:22:12.150Z,1009.20
2018-12-24T11:23:12.163Z,1009.23
2018-12-24T11:24:12.111Z,1009.22
2018-12-24T11:25:12.156Z,1009.28
2018-12-24T11:26:12.086Z,1009.25
2018-12-24T11:27:12.186Z,1009.28
2018-12-24T11:28:12.100Z,1009.21
2018-12-24T11:29:12.054Z,1009.20
2018-12-24T11:30:12.047Z,1009.16
2018-12-24T11:31:12.031Z,1009.20
2018-12-24T11:32:12.054Z,1009.25
2018-12-24T11:33:12.167Z,1009.23
2018-12-24T11:34:12.001Z,1009.21
2018-12-24T11:35:11.997Z,1009.27
2018-12-24T11:36:11.991Z,1009.26
2018-12-24T11:37:12.008Z,1009.22
2018-12-24T11:38:11.981Z,1009.30
2018-12-24T11:39:11.989Z,1009.21
2018-12-24T11:40:11.933Z,1009.28
2018-12-24T11:41:11.922Z,1009.21
2018-12-24T11:42:11.973Z,1009.21
2018-12-24T11:43:11.925Z,1009.19
2018-12-24T11:44:11.925Z,1009.19
2018-12-24T11:45:11.876Z,1009.25
2018-12-24T11:46:11.869Z,1009.22
2018-12-24T11:47:11.884Z,1009.36
2018-12-24T11:48:11.875Z,1009.29
2018-12-24T11:49:11.861Z,1009.27
2018-12-24T11:50:11.934Z,1009.37
2018-12-24T11:51:11.872Z,1009.28
2018-12-24T11:52:11.804Z,1009.27
2018-12-24T11:53:11.803Z,1009.28
2018-12-24T11:54:11.781Z,1009.30
2018-12-24T11:55:11.796Z,1009.36
2018-12-24T11:56:11.796Z,1009.36
2018-12-24T11:57:11.745Z,1009.36
2018-12-24T11:58:13.317Z,1009.43
2018-12-24T11:59:11.754Z,1009.40
2018-12-24T12:00:11.712Z,1009.43
2018-12-24T12:01:11.732Z,1009.50
2018-12-24T12:02:11.695Z,1009.53
2018-12-24T12:03:12.778Z,1009.52
2018-12-24T12:04:11.710Z,1009.52
2018-12-24T12:05:11.752Z,1009.51
2018-12-24T12:06:19.532Z,1009.48
2018-12-24T12:07:12.659Z,1009.48
2018-12-24T12:08:11.653Z,1009.49
2018-12-24T12:09:11.614Z,1009.48
2018-12-24T12:10:11.694Z,1009.56
2018-12-24T12:11:11.616Z,1009.58
2018-12-24T12:12:11.602Z,1009.61
2018-12-24T12:13:11.577Z,1009.62
2018-12-24T12:14:11.669Z,1009.61